Caribbean Princess — ZCDG8 — position and weather

sailwx.info

Track history (hours):
 
Tides and Currents Weather Stations Pressure Air Temp Water Temp Dewpoint Dewpoint Depression Visibility Wind Speed Wind Dir Waves Ship Positions

Caribbean Princess

Operator: Princess Cruises

Last reported at 2018-Oct-24 02:00 UTC. Time now 2018-Oct-24 05:28 UTC.
Position N 14°48' W 061°30'.

Type: Passenger vessel. MMSI: 310423000.

Wind from 180 at 20 knots

Barometer 1012.9 mb
Air temperature 27.5 ° C
Visibility: greater than 5.4 NM
Dewpoint 23.4 ° C
Water temperature 28.0 ° C

Date/timePositionNaut miles runAvg speedWind from/ knotsBaromVisibWave heightAir tempDewpointWater temp
2018-Oct-24 02:00N 14°48' W 061°30'2612.4 180 / 201012.9 5.4 27.523.428.0
2018-Oct-23 23:53N 14°24' W 061°19'817.9
2018-Oct-23 23:27N 14°17' W 061°15'816.8
2018-Oct-23 22:58N 14°10' W 061°12'916.6
2018-Oct-23 22:25N 14°04' W 061°05'0 0.0
2018-Oct-23 10:19N 14°04' W 061°05'411.7
2018-Oct-23 09:57N 14°07' W 061°08'812.4
2018-Oct-23 09:18N 14°13' W 061°13'417.4
2018-Oct-23 09:03N 14°17' W 061°15'117.7
2018-Oct-23 08:59N 14°18' W 061°16'14816.4
2018-Oct-23 00:00N 16°30' W 062°24'4229.7 080 / 201013.0 5.4 28.023.930.0
2018-Oct-22 22:34N 17°08' W 062°43'19 1.5
2018-Oct-22 09:59N 17°22' W 062°57'817.0
2018-Oct-22 09:30N 17°26' W 063°04'917.7
2018-Oct-22 09:01N 17°34' W 063°07'316.7
2018-Oct-22 08:50N 17°37' W 063°09'1116.2
2018-Oct-22 08:09N 17°44' W 063°17'217.2
2018-Oct-22 08:03N 17°45' W 063°18'917.1
2018-Oct-22 07:32N 17°49' W 063°27'717.2
2018-Oct-22 07:09N 17°51' W 063°33'7016.8
2018-Oct-22 03:00N 18°10' W 064°44'816.7
2018-Oct-22 02:30N 18°12' W 064°52'716.2
2018-Oct-22 02:03N 18°18' W 064°55'40611.3
2018-Oct-20 14:00N 21°48' W 071°06'13619.4 060 / 151015.610.8 27.020.629.0
2018-Oct-20 07:00N 22°48' W 073°18'7819.4 080 / 201014.710.8 27.021.329.0
2018-Oct-20 03:00N 23°18' W 074°36'31511.1 070 / 201017.110.8 27.322.130.0
2018-Oct-18 22:30N 26°09' W 079°28'816.9
2018-Oct-18 22:03N 26°08' W 079°36'116.9
2018-Oct-18 22:00N 26°08' W 079°37'816.8
2018-Oct-18 21:30N 26°07' W 079°46'716.7
2018-Oct-18 21:03N 26°07' W 079°55'116.1
2018-Oct-18 21:00N 26°06' W 079°56'715.1
2018-Oct-18 20:30N 26°05' W 080°04'3 7.3
2018-Oct-18 20:03N 26°06' W 080°07'0 0.5
2018-Oct-18 20:00N 26°06' W 080°07'0 0.0
2018-Oct-18 19:27N 26°06' W 080°07'0 0.0
2018-Oct-18 18:57N 26°06' W 080°07'0 0.0
2018-Oct-18 18:30N 26°06' W 080°07'0 0.0
2018-Oct-18 18:00N 26°06' W 080°07'0 0.0
2018-Oct-18 17:30N 26°06' W 080°07'0 0.0
2018-Oct-18 17:00N 26°06' W 080°07'0 0.0
2018-Oct-18 16:30N 26°06' W 080°07'0 0.0
2018-Oct-18 16:00N 26°06' W 080°07'0 0.0
2018-Oct-18 15:30N 26°06' W 080°07'0 0.0
2018-Oct-18 15:03N 26°06' W 080°07'0 0.0
2018-Oct-18 15:00N 26°06' W 080°07'0 0.0
2018-Oct-18 13:12N 26°06' W 080°07'0 0.0
2018-Oct-18 11:21N 26°06' W 080°07'0 0.0
2018-Oct-18 11:00N 26°06' W 080°07'0 0.0
2018-Oct-18 10:30N 26°06' W 080°07'0 0.5
2018-Oct-18 10:02N 26°06' W 080°07'0 1.2
2018-Oct-18 10:00N 26°06' W 080°07'4 8.3
2018-Oct-18 09:29N 26°06' W 080°02'410.0
2018-Oct-18 09:03N 26°06' W 079°57'111.5
2018-Oct-18 09:00N 26°06' W 079°57'612.3
2018-Oct-18 08:30N 26°02' W 079°51'816.7
2018-Oct-18 08:03N 25°55' W 079°51'116.8
2018-Oct-18 08:00N 25°54' W 079°51'816.4
2018-Oct-18 07:31N 25°46' W 079°52'816.3
2018-Oct-18 07:03N 25°38' W 079°54'116.2
2018-Oct-18 07:00N 25°38' W 079°54'816.2
2018-Oct-18 06:30N 25°30' W 079°55'816.0
2018-Oct-18 06:00N 25°22' W 079°55'3719.2
2018-Oct-18 04:06N 24°50' W 080°16'219.2
2018-Oct-18 04:02N 24°49' W 080°17'019.3
2018-Oct-18 04:00N 24°49' W 080°17'1413.9
2018-Oct-18 03:00N 24°36' W 080°24'21317.7 070 / 281018.710.8 28.023.930.0
2018-Oct-17 15:00N 22°54' W 083°48'14713.3 080 / 181016.910.8 27.324.229.0
2018-Oct-17 04:00N 20°30' W 083°18'7518.7 080 / 181014.610.8 27.824.329.0
2018-Oct-17 00:00N 19°48' W 082°12'132 6.6 090 / 221012.910.8 31.022.728.0
2018-Oct-16 04:00N 17°42' W 081°30'6015.1 110 / 261012.910.8 27.724.729.0
2018-Oct-16 00:00N 16°42' W 081°36'23618.1 120 / 261010.510.8 27.024.327.0
2018-Oct-15 11:00N 12°48' W 082°06'223 6.9 190 / 31008.510.8 27.024.327.0
2018-Oct-14 02:27N 09°37' W 080°07'  
Track history (hours):
 
Tides and Currents Weather Stations Pressure Air Temp Water Temp Dewpoint Dewpoint Depression Visibility Wind Speed Wind Dir Waves Ship Positions

Caribbean Princess

Operator: Princess Cruises

Last reported at 2018-Oct-24 02:00 UTC. Time now 2018-Oct-24 05:28 UTC.
Position N 14°48' W 061°30'.

Type: Passenger vessel. MMSI: 310423000.

Wind from 180 at 20 knots

Barometer 1012.9 mb
Air temperature 27.5 ° C
Visibility: greater than 5.4 NM
Dewpoint 23.4 ° C
Water temperature 28.0 ° C

Date/timePositionNaut miles runAvg speedWind from/ knotsBaromVisibWave heightAir tempDewpointWater temp
2018-Oct-24 02:00N 14°48' W 061°30'2612.4 180 / 201012.9 5.4 27.523.428.0
2018-Oct-23 23:53N 14°24' W 061°19'817.9
2018-Oct-23 23:27N 14°17' W 061°15'816.8
2018-Oct-23 22:58N 14°10' W 061°12'916.6
2018-Oct-23 22:25N 14°04' W 061°05'0 0.0
2018-Oct-23 10:19N 14°04' W 061°05'411.7
2018-Oct-23 09:57N 14°07' W 061°08'812.4
2018-Oct-23 09:18N 14°13' W 061°13'417.4
2018-Oct-23 09:03N 14°17' W 061°15'117.7
2018-Oct-23 08:59N 14°18' W 061°16'14816.4
2018-Oct-23 00:00N 16°30' W 062°24'4229.7 080 / 201013.0 5.4 28.023.930.0
2018-Oct-22 22:34N 17°08' W 062°43'19 1.5
2018-Oct-22 09:59N 17°22' W 062°57'817.0
2018-Oct-22 09:30N 17°26' W 063°04'917.7
2018-Oct-22 09:01N 17°34' W 063°07'316.7
2018-Oct-22 08:50N 17°37' W 063°09'1116.2
2018-Oct-22 08:09N 17°44' W 063°17'217.2
2018-Oct-22 08:03N 17°45' W 063°18'917.1
2018-Oct-22 07:32N 17°49' W 063°27'717.2
2018-Oct-22 07:09N 17°51' W 063°33'7016.8
2018-Oct-22 03:00N 18°10' W 064°44'816.7
2018-Oct-22 02:30N 18°12' W 064°52'716.2
2018-Oct-22 02:03N 18°18' W 064°55'40611.3
2018-Oct-20 14:00N 21°48' W 071°06'13619.4 060 / 151015.610.8 27.020.629.0
2018-Oct-20 07:00N 22°48' W 073°18'7819.4 080 / 201014.710.8 27.021.329.0
2018-Oct-20 03:00N 23°18' W 074°36'31511.1 070 / 201017.110.8 27.322.130.0
2018-Oct-18 22:30N 26°09' W 079°28'816.9
2018-Oct-18 22:03N 26°08' W 079°36'116.9
2018-Oct-18 22:00N 26°08' W 079°37'816.8
2018-Oct-18 21:30N 26°07' W 079°46'716.7
2018-Oct-18 21:03N 26°07' W 079°55'116.1
2018-Oct-18 21:00N 26°06' W 079°56'715.1
2018-Oct-18 20:30N 26°05' W 080°04'3 7.3
2018-Oct-18 20:03N 26°06' W 080°07'0 0.5
2018-Oct-18 20:00N 26°06' W 080°07'0 0.0
2018-Oct-18 19:27N 26°06' W 080°07'0 0.0
2018-Oct-18 18:57N 26°06' W 080°07'0 0.0
2018-Oct-18 18:30N 26°06' W 080°07'0 0.0
2018-Oct-18 18:00N 26°06' W 080°07'0 0.0
2018-Oct-18 17:30N 26°06' W 080°07'0 0.0
2018-Oct-18 17:00N 26°06' W 080°07'0 0.0
2018-Oct-18 16:30N 26°06' W 080°07'0 0.0
2018-Oct-18 16:00N 26°06' W 080°07'0 0.0
2018-Oct-18 15:30N 26°06' W 080°07'0 0.0
2018-Oct-18 15:03N 26°06' W 080°07'0 0.0
2018-Oct-18 15:00N 26°06' W 080°07'0 0.0
2018-Oct-18 13:12N 26°06' W 080°07'0 0.0
2018-Oct-18 11:21N 26°06' W 080°07'0 0.0
2018-Oct-18 11:00N 26°06' W 080°07'0 0.0
2018-Oct-18 10:30N 26°06' W 080°07'0 0.5
2018-Oct-18 10:02N 26°06' W 080°07'0 1.2
2018-Oct-18 10:00N 26°06' W 080°07'4 8.3
2018-Oct-18 09:29N 26°06' W 080°02'410.0
2018-Oct-18 09:03N 26°06' W 079°57'111.5
2018-Oct-18 09:00N 26°06' W 079°57'612.3
2018-Oct-18 08:30N 26°02' W 079°51'816.7
2018-Oct-18 08:03N 25°55' W 079°51'116.8
2018-Oct-18 08:00N 25°54' W 079°51'816.4
2018-Oct-18 07:31N 25°46' W 079°52'816.3
2018-Oct-18 07:03N 25°38' W 079°54'116.2
2018-Oct-18 07:00N 25°38' W 079°54'816.2
2018-Oct-18 06:30N 25°30' W 079°55'816.0
2018-Oct-18 06:00N 25°22' W 079°55'3719.2
2018-Oct-18 04:06N 24°50' W 080°16'219.2
2018-Oct-18 04:02N 24°49' W 080°17'019.3
2018-Oct-18 04:00N 24°49' W 080°17'1413.9
2018-Oct-18 03:00N 24°36' W 080°24'21317.7 070 / 281018.710.8 28.023.930.0
2018-Oct-17 15:00N 22°54' W 083°48'14713.3 080 / 181016.910.8 27.324.229.0
2018-Oct-17 04:00N 20°30' W 083°18'7518.7 080 / 181014.610.8 27.824.329.0
2018-Oct-17 00:00N 19°48' W 082°12'132 6.6 090 / 221012.910.8 31.022.728.0
2018-Oct-16 04:00N 17°42' W 081°30'6015.1 110 / 261012.910.8 27.724.729.0
2018-Oct-16 00:00N 16°42' W 081°36'23618.1 120 / 261010.510.8 27.024.327.0
2018-Oct-15 11:00N 12°48' W 082°06'223 6.9 190 / 31008.510.8 27.024.327.0
2018-Oct-14 02:27N 09°37' W 080°07'  

Dump ship's entire track history